• Join FlightAware (Why Join?)
  • Login
  • US Flag 
03:25PM EDT


 

Airport Tracker/Info


-or-


 

Live Flight TrackerFlight Track Log ✈ N43317 ✈ 14-May-2013 ✈ KCPS - KCBF

Flight Track Log - Related Links

Times and Time Zones

All times are in EDT time to prevent confusion due to time zone crossing. See the N43317 flight status page for this flight to view local times or setup timezone preferences in your user account.

Time Position Orientation Groundspeed Altitude Reporting Facility
EDT Latitude Longitude Course Direction KTS MPH feet Rate Location/Type
04:03PM 38.5667 -90.2167 297° West 74 85 1,700  Level Gateway (St. Louis) TRACON
04:04PM 38.5686 -90.2306 280° West 76 87 1,900 480 Climbing Kansas City Center
04:05PM 38.5728 -90.2583 281° West 77 89 2,600 480 Climbing Kansas City Center
04:06PM 38.5781 -90.2897 282° West 84 97 3,000 240 Climbing Kansas City Center
04:07PM 38.5825 -90.3228 280° West 89 102 3,100 180 Climbing Kansas City Center
04:08PM 38.6628 -90.3320 297° West  Level FlightAware Approximate
04:08PM 38.5864 -90.3619 277° West 102 117 3,400  Level Kansas City Center
04:09PM 38.5911 -90.3919 281° West 93 107 4,000 480 Climbing Kansas City Center
04:10PM 38.5956 -90.4192 282° West 84 97 4,500 540 Climbing Kansas City Center
04:11PM 38.5992 -90.4508 278° West 77 89 5,200 600 Climbing Kansas City Center
04:12PM 38.6147 -90.4694 317° Northwest 77 89 5,800 360 Climbing Kansas City Center
04:13PM 38.6322 -90.4908 316° Northwest 85 98 6,000 60 Climbing Kansas City Center
04:14PM 38.6547 -90.5194 315° West 108 124 6,000  Level Kansas City Center
04:15PM 38.6775 -90.5503 313° West 117 135 6,000  Level Kansas City Center
04:16PM 38.7003 -90.5803 314° West 117 135 6,000  Level Kansas City Center
04:17PM 38.7236 -90.6108 314° West 119 137 6,000  Level Kansas City Center
04:18PM 38.7447 -90.6417 311° West 116 133 6,000  Level Kansas City Center
04:19PM 38.7711 -90.6778 313° West 115 132 6,000  Level Kansas City Center
04:20PM 38.7881 -90.7117 303° West 113 130 6,000  Level Kansas City Center
04:21PM 38.8058 -90.7436 306° West 112 129 6,000  Level Kansas City Center
04:22PM 38.8231 -90.7750 305° West 109 125 6,000  Level Kansas City Center
04:23PM 38.8406 -90.8092 303° West 112 129 6,000  Level Kansas City Center
04:24PM 38.8581 -90.8400 306° West 109 125 6,000  Level Kansas City Center
04:25PM 38.8797 -90.8789 306° West 112 129 6,000  Level Kansas City Center
04:26PM 38.8969 -90.9108 305° West 110 127 6,000  Level Kansas City Center
04:27PM 38.9122 -90.9431 301° West 107 123 6,000  Level Kansas City Center
04:28PM 38.9303 -90.9767 305° West 112 129 6,000  Level Kansas City Center
04:29PM 38.9475 -91.0081 305° West 111 128 6,000  Level Kansas City Center
04:31PM 38.9653 -91.0403 305° West 110 127 6,000  Level Kansas City Center
04:32PM 38.9853 -91.0789 304° West 109 125 6,000  Level Kansas City Center
04:33PM 39.0031 -91.1114 305° West 110 127 6,000  Level Kansas City Center
04:34PM 39.0200 -91.1425 305° West 108 124 6,000 -60 Level Kansas City Center
04:35PM 39.0375 -91.1758 304° West 110 127 5,900  Descending Kansas City Center
04:36PM 39.0544 -91.2100 303° West 112 129 6,000 60 Climbing Kansas City Center
04:37PM 39.0761 -91.2461 308° West 109 125 6,100  Climbing Kansas City Center
04:38PM 39.0936 -91.2767 306° West 108 124 6,000 -60 Descending Kansas City Center
04:39PM 39.1111 -91.3100 304° West 110 127 6,000  Level Kansas City Center
04:40PM 39.1278 -91.3408 305° West 108 124 6,000  Level Kansas City Center
04:41PM 39.1456 -91.3744 304° West 110 127 6,100  Climbing Kansas City Center
04:42PM 39.1636 -91.4075 305° West 112 129 6,100  Level Kansas City Center
04:43PM 39.1842 -91.4481 303° West 112 129 6,100  Level Kansas City Center
04:44PM 39.2011 -91.4786 306° West 107 123 6,100  Level Kansas City Center
04:45PM 39.2203 -91.5108 308° West 111 128 6,100  Level Kansas City Center
04:46PM 39.2375 -91.5447 303° West 113 130 6,100  Level Kansas City Center
04:47PM 39.2567 -91.5758 309° West 112 129 6,100  Level Kansas City Center
04:48PM 39.2758 -91.6058 310° West 109 125 6,100  Level Kansas City Center
04:49PM 39.2975 -91.6431 307° West 109 125 6,100  Level Kansas City Center
04:50PM 39.3158 -91.6753 306° West 110 127 6,100  Level Kansas City Center
04:51PM 39.3314 -91.7069 302° West 111 128 6,100  Level Kansas City Center
04:52PM 39.3506 -91.7361 310° West 109 125 6,100  Level Kansas City Center
04:53PM 39.3703 -91.7764 302° West 111 128 6,100  Level Kansas City Center
04:54PM 39.3900 -91.8058 311° West 109 125 6,100  Level Kansas City Center
04:55PM 39.4075 -91.8378 305° West 110 127 6,200  Climbing Kansas City Center
04:56PM 39.4264 -91.8703 307° West 113 130 6,100 -60 Descending Kansas City Center
04:57PM 39.4442 -91.9031 305° West 112 129 6,100  Level Kansas City Center
04:58PM 39.4661 -91.9419 306° West 112 129 6,100  Level Kansas City Center
04:59PM 39.4844 -91.9744 306° West 112 129 6,100  Level Kansas City Center
05:00PM 39.5044 -92.0036 312° West 109 125 6,100  Level Kansas City Center
05:02PM 39.5231 -92.0361 307° West 111 128 6,100 -60 Level Kansas City Center
05:03PM 39.5408 -92.0708 304° West 114 131 6,000 -60 Descending Kansas City Center
05:04PM 39.5625 -92.1083 307° West 112 129 6,000  Level Kansas City Center
05:05PM 39.5808 -92.1422 305° West 113 130 6,000  Level Kansas City Center
05:06PM 39.5989 -92.1722 308° West 110 127 6,000  Level Kansas City Center
05:08PM 39.6358 -92.2372 306° West 113 130 6,000  Level Kansas City Center
05:09PM 39.6575 -92.2761 306° West 112 129 6,000  Level Kansas City Center
05:10PM 39.6761 -92.3081 307° West 113 130 6,000  Level Kansas City Center
05:11PM 39.6947 -92.3392 308° West 112 129 6,000  Level Kansas City Center
05:12PM 39.7131 -92.3706 307° West 109 125 6,000  Level Kansas City Center
05:13PM 39.7314 -92.4025 307° West 111 128 6,000  Level Kansas City Center
05:14PM 39.7539 -92.4408 307° West 111 128 6,000  Level Kansas City Center
05:15PM 39.7714 -92.4728 305° West 110 127 6,000  Level Kansas City Center
05:16PM 39.7889 -92.5050 305° West 110 127 6,000  Level Kansas City Center
05:17PM 39.8056 -92.5381 303° West 109 125 6,000  Level Kansas City Center
05:18PM 39.8261 -92.5686 311° West 111 128 6,000  Level Kansas City Center
05:19PM 39.8458 -92.6075 303° West 109 125 6,000  Level Kansas City Center
05:20PM 39.8642 -92.6394 307° West 109 125 6,000  Level Kansas City Center
05:21PM 39.8786 -92.6725 300° West 108 124 6,100  Climbing Kansas City Center
05:22PM 39.8950 -92.7053 303° West 108 124 6,000 -60 Descending Kansas City Center
05:23PM 39.9114 -92.7394 302° West 109 125 6,000  Level Kansas City Center
05:24PM 39.9269 -92.7728 301° West 109 125 6,000  Level Kansas City Center
05:25PM 39.9442 -92.8131 299° West 108 124 6,000  Level Kansas City Center
05:26PM 39.9611 -92.8456 304° West 108 124 6,000  Level Kansas City Center
05:27PM 39.9769 -92.8789 302° West 108 124 6,100  Climbing Kansas City Center
05:28PM 39.9939 -92.9122 304° West 110 127 6,000  Descending Kansas City Center
05:29PM 40.0089 -92.9456 300° West 109 125 6,100  Climbing Kansas City Center
05:30PM 40.0281 -92.9858 302° West 109 125 6,000 -60 Descending Kansas City Center
05:32PM 40.0428 -93.0200 299° West 109 125 6,000  Level Kansas City Center
05:33PM 40.0622 -93.0508 309° West 109 125 6,000  Level Kansas City Center
05:34PM 40.0783 -93.0828 303° West 108 124 6,000  Level Kansas City Center
05:35PM 40.0931 -93.1161 300° West 107 123 6,000  Level Kansas City Center
05:36PM 40.1119 -93.1553 302° West 107 123 6,000  Level Kansas City Center
05:37PM 40.1283 -93.1872 304° West 106 122 6,000  Level Kansas City Center
05:38PM 40.1442 -93.2203 302° West 107 123 6,000  Level Kansas City Center
05:39PM 40.1592 -93.2536 300° West 107 123 6,000  Level Kansas City Center
05:40PM 40.1761 -93.2858 305° West 108 124 6,000  Level Kansas City Center
05:41PM 40.1961 -93.3231 305° West 106 122 6,000  Level Kansas City Center
05:42PM 40.2117 -93.3575 301° West 108 124 6,000  Level Kansas City Center
05:43PM 40.2272 -93.3903 302° West 108 124 6,000  Level Kansas City Center
05:44PM 40.2442 -93.4219 305° West 107 123 6,000  Level Kansas City Center
05:45PM 40.2611 -93.4542 305° West 108 124 6,000  Level Kansas City Center
05:46PM 40.2808 -93.4922 304° West 107 123 6,100  Climbing Kansas City Center
05:47PM 40.2964 -93.5264 301° West 109 125 6,000  Descending Kansas City Center
05:48PM 40.3139 -93.5592 305° West 110 127 6,100  Climbing Kansas City Center
05:49PM 40.3303 -93.5939 302° West 111 128 6,000 -60 Descending Kansas City Center
05:50PM 40.3469 -93.6258 304° West 110 127 6,000  Level Kansas City Center
05:51PM 40.3683 -93.6664 305° West 111 128 6,000  Level Kansas City Center
05:52PM 40.3856 -93.6986 305° West 111 128 6,000 -60 Level Kansas City Center
05:53PM 40.4008 -93.7339 300° West 110 127 5,900 -60 Descending Minneapolis Center
05:54PM 40.4181 -93.7683 303° West 112 129 5,900  Level Minneapolis Center
05:55PM 40.4389 -93.8075 305° West 111 128 5,900  Level Minneapolis Center
05:56PM 40.4547 -93.8397 303° West 110 127 6,000  Climbing Minneapolis Center
05:57PM 40.4722 -93.8714 306° West 108 124 6,000  Level Minneapolis Center
05:58PM 40.4894 -93.9050 304° West 109 125 6,000  Level Minneapolis Center
06:00PM 40.5086 -93.9447 302° West 109 125 6,000  Level Minneapolis Center
06:01PM 40.5242 -93.9783 301° West 109 125 6,000  Level Minneapolis Center
06:02PM 40.5403 -94.0125 302° West 110 127 6,000  Level Minneapolis Center
06:03PM 40.5547 -94.0469 299° West 109 125 6,000  Level Minneapolis Center
06:04PM 40.5728 -94.0869 301° West 108 124 6,000  Level Minneapolis Center
06:05PM 40.5886 -94.1214 301° West 109 125 6,000  Level Minneapolis Center
06:06PM 40.6081 -94.1539 308° West 110 127 6,000 -60 Level Minneapolis Center
06:07PM 40.6239 -94.1886 301° West 111 128 5,900  Descending Minneapolis Center
06:08PM 40.6406 -94.2222 303° West 111 128 6,000  Climbing Minneapolis Center
06:09PM 40.6589 -94.2536 308° West 109 125 6,000  Level Minneapolis Center
06:10PM 40.6803 -94.2906 307° West 107 123 6,000  Level Minneapolis Center
06:11PM 40.6983 -94.3208 308° West 106 122 6,100  Climbing Minneapolis Center
06:12PM 40.7139 -94.3525 303° West 105 121 6,100  Level Minneapolis Center
06:13PM 40.7294 -94.3853 302° West 105 121 6,100  Level Minneapolis Center
06:14PM 40.7467 -94.4181 305° West 109 125 6,100  Level Minneapolis Center
06:15PM 40.7658 -94.4592 302° West 110 127 6,100  Level Minneapolis Center
06:16PM 40.7831 -94.4928 304° West 112 129 6,100  Level Minneapolis Center
06:17PM 40.7994 -94.5258 303° West 109 125 6,100 -60 Level Minneapolis Center
06:18PM 40.8181 -94.5636 303° West 110 127 6,000 -60 Descending Minneapolis Center
06:19PM 40.8347 -94.5981 303° West 111 128 6,000  Level Minneapolis Center
06:20PM 40.8514 -94.6308 304° West 109 125 6,000 -60 Level Minneapolis Center
06:21PM 40.8681 -94.6656 302° West 110 127 5,900  Descending Minneapolis Center
06:22PM 40.8856 -94.6997 304° West 111 128 6,000  Climbing Minneapolis Center
06:23PM 40.9022 -94.7336 303° West 111 128 6,000  Level Minneapolis Center
06:24PM 40.9222 -94.7747 303° West 110 127 6,000  Level Minneapolis Center
06:25PM 40.9394 -94.8097 303° West 112 129 6,000  Level Minneapolis Center
06:26PM 40.9567 -94.8447 303° West 113 130 6,000  Level Minneapolis Center
06:27PM 40.9744 -94.8806 303° West 114 131 6,000  Level Minneapolis Center
06:28PM 41.0067 -94.9192 318° Northwest 117 135 6,000  Level Minneapolis Center
06:29PM 41.0064 -94.9528 269° West 114 131 6,000  Level Minneapolis Center
06:30PM 41.0394 -94.9950 316° Northwest 120 138 6,000 -240 Level Minneapolis Center
06:31PM 41.0550 -95.0347 297° West 126 145 5,600 -540 Descending Minneapolis Center
06:33PM 41.0728 -95.0767 299° West 133 153 5,000 -600 Descending Minneapolis Center
06:34PM 41.0931 -95.1239 300° West 146 168 4,400 -480 Descending Minneapolis Center
06:35PM 41.1156 -95.1736 301° West 140 161 4,100 -240 Descending Minneapolis Center
06:36PM 41.1228 -95.2078 286° West 135 155 3,900  Descending Minneapolis Center
06:37PM 41.1353 -95.2533 290° West 121 139 4,100 60 Climbing Minneapolis Center
06:38PM 41.1508 -95.2883 301° West 106 122 4,100 -60 Level Minneapolis Center
06:39PM 41.1600 -95.3286 287° West 111 128 4,000  Descending Minneapolis Center
06:40PM 41.1711 -95.3661 291° West 117 135 4,100  Climbing Minneapolis Center
06:41PM 41.1739 -95.4075 275° West 112 129 4,000  Descending Minneapolis Center
06:42PM 41.1894 -95.4469 298° West 108 124 4,100 -120 Climbing Minneapolis Center
06:43PM 41.1986 -95.4875 287° West 112 129 3,800 -420 Descending Minneapolis Center
06:44PM 41.2058 -95.5336 282° West 132 152 3,300 -420 Descending Minneapolis Center
06:45PM 41.2111 -95.5800 279° West 128 147 3,000 -120 Descending Minneapolis Center
06:46PM 41.2178 -95.6153 284° West 109 125 3,100  Climbing Minneapolis Center
06:46PM 41.2164 -95.6250 259° West 118 136 3,000  Descending Minneapolis Center
06:47PM 41.2211 -95.6642 279° West 117 135 3,100 60 Climbing Minneapolis Center